ルアンダ の空港の天気 - METARとTAF

ルアンダ国際空港 ( FNLU / LAD ) - アンゴラ ルアンダ
飛行場実況気象(Metar)
観測時間04/26 12:00 WAT (04/26 11:00 UTC)
風向・風速西北西 4m/s
視程10km以上
天気現象
全天の8割程度の雲 雲底高度 670m
気温30℃
湿度75%
気圧1011hPa
METARFNLU 261100Z 29008KT 9999 BKN022 30/25 Q1011 NOSIG
過去の天気等 Google飛行場航空写真 Wunderground天気予報

過去48時間のMETAR

飛行場予報(TAF)
発表時間: 4/26 04:00 WAT (4/26 03:00 UTC)
予報対象時間: 26日7時 WAT ~ 27日13時 WAT
風向・風速東南東 3m/s
視程5,000m
天気現象もや
少しの雲 雲底高度 610m
全天の8割程度の雲 雲底高度 2,440m
26日14時 WAT ~ 26日16時 WAT に徐々に
風向・風速西北西 5m/s
視程10km以上
少しの雲 雲底高度 610m
全天の4割程度の雲 雲底高度 2,740m
27日2時 WAT ~ 27日6時 WAT に一時的に
風向・風速不定 2m/s
視程10km以上
少しの雲 雲底高度 610m
全天の8割程度の雲 雲底高度 2,440m
TAF FNLU 260300Z 2606/2712 12005KT 5000 BR FEW020 BKN080
BECMG 2613/2615 29010KT 9999 FEW020 SCT090
TEMPO 2701/2705 VRB03KT 9999 FEW020 BKN080